sensor_id;sensor_type;location;lat;lon;timestamp;temperature;humidity
16881;DHT22;8557;52.068;5.198;2022-11-21T00:01:46;3.80;99.90
16881;DHT22;8557;52.068;5.198;2022-11-21T00:04:13;3.90;99.90
16881;DHT22;8557;52.068;5.198;2022-11-21T00:06:40;3.80;99.90
16881;DHT22;8557;52.068;5.198;2022-11-21T00:09:06;3.80;99.90
16881;DHT22;8557;52.068;5.198;2022-11-21T00:11:33;3.80;99.90
16881;DHT22;8557;52.068;5.198;2022-11-21T00:14:00;4.00;99.90
16881;DHT22;8557;52.068;5.198;2022-11-21T00:16:28;3.90;99.90
16881;DHT22;8557;52.068;5.198;2022-11-21T00:18:54;3.90;99.90
16881;DHT22;8557;52.068;5.198;2022-11-21T00:21:21;3.80;99.90
16881;DHT22;8557;52.068;5.198;2022-11-21T00:23:48;3.80;99.90
16881;DHT22;8557;52.068;5.198;2022-11-21T00:26:15;3.80;99.90
16881;DHT22;8557;52.068;5.198;2022-11-21T00:28:43;3.80;99.90
16881;DHT22;8557;52.068;5.198;2022-11-21T00:31:17;3.80;99.90
16881;DHT22;8557;52.068;5.198;2022-11-21T00:33:46;3.80;99.90
16881;DHT22;8557;52.068;5.198;2022-11-21T00:36:12;3.80;99.90
16881;DHT22;8557;52.068;5.198;2022-11-21T00:38:39;3.80;99.90
16881;DHT22;8557;52.068;5.198;2022-11-21T00:41:06;3.80;99.90
16881;DHT22;8557;52.068;5.198;2022-11-21T00:43:33;3.70;99.90
16881;DHT22;8557;52.068;5.198;2022-11-21T00:46:00;3.70;99.90
16881;DHT22;8557;52.068;5.198;2022-11-21T00:48:27;3.70;99.90
16881;DHT22;8557;52.068;5.198;2022-11-21T00:50:55;3.70;99.90
16881;DHT22;8557;52.068;5.198;2022-11-21T00:53:22;3.70;99.90
16881;DHT22;8557;52.068;5.198;2022-11-21T00:55:49;3.70;99.90
16881;DHT22;8557;52.068;5.198;2022-11-21T00:58:15;3.70;99.90
16881;DHT22;8557;52.068;5.198;2022-11-21T01:00:42;3.70;99.90
16881;DHT22;8557;52.068;5.198;2022-11-21T01:03:09;3.70;99.90
16881;DHT22;8557;52.068;5.198;2022-11-21T01:05:35;3.70;99.90
16881;DHT22;8557;52.068;5.198;2022-11-21T01:08:04;3.70;99.90
16881;DHT22;8557;52.068;5.198;2022-11-21T01:10:30;3.70;99.90
16881;DHT22;8557;52.068;5.198;2022-11-21T01:12:57;3.70;99.90
16881;DHT22;8557;52.068;5.198;2022-11-21T01:15:24;3.70;99.90
16881;DHT22;8557;52.068;5.198;2022-11-21T01:17:51;3.70;99.90
16881;DHT22;8557;52.068;5.198;2022-11-21T01:20:17;3.70;99.90
16881;DHT22;8557;52.068;5.198;2022-11-21T01:22:44;3.90;99.90
16881;DHT22;8557;52.068;5.198;2022-11-21T01:25:12;3.80;99.90
16881;DHT22;8557;52.068;5.198;2022-11-21T01:27:39;3.90;99.90
16881;DHT22;8557;52.068;5.198;2022-11-21T01:30:06;3.80;99.90
16881;DHT22;8557;52.068;5.198;2022-11-21T01:32:33;3.80;99.90
16881;DHT22;8557;52.068;5.198;2022-11-21T01:35:00;3.90;99.90
16881;DHT22;8557;52.068;5.198;2022-11-21T01:37:27;3.80;99.90
16881;DHT22;8557;52.068;5.198;2022-11-21T01:39:53;3.70;99.90
16881;DHT22;8557;52.068;5.198;2022-11-21T01:42:21;3.70;99.90
16881;DHT22;8557;52.068;5.198;2022-11-21T01:44:49;3.70;99.90
16881;DHT22;8557;52.068;5.198;2022-11-21T01:47:18;3.70;99.90
16881;DHT22;8557;52.068;5.198;2022-11-21T01:49:47;3.70;99.90
16881;DHT22;8557;52.068;5.198;2022-11-21T01:52:17;3.60;99.90
16881;DHT22;8557;52.068;5.198;2022-11-21T01:54:47;3.60;99.90
16881;DHT22;8557;52.068;5.198;2022-11-21T01:57:18;3.60;99.90
16881;DHT22;8557;52.068;5.198;2022-11-21T01:59:50;3.50;99.90
16881;DHT22;8557;52.068;5.198;2022-11-21T02:02:22;3.50;99.90
16881;DHT22;8557;52.068;5.198;2022-11-21T02:04:51;3.50;99.90
16881;DHT22;8557;52.068;5.198;2022-11-21T02:07:19;3.50;99.90
16881;DHT22;8557;52.068;5.198;2022-11-21T02:09:51;3.50;99.90
16881;DHT22;8557;52.068;5.198;2022-11-21T02:12:23;3.50;99.90
16881;DHT22;8557;52.068;5.198;2022-11-21T02:14:52;3.50;99.90
16881;DHT22;8557;52.068;5.198;2022-11-21T02:17:19;3.50;99.90
16881;DHT22;8557;52.068;5.198;2022-11-21T02:19:51;3.50;99.90
16881;DHT22;8557;52.068;5.198;2022-11-21T02:22:26;3.50;99.90
16881;DHT22;8557;52.068;5.198;2022-11-21T02:25:03;3.50;99.90
16881;DHT22;8557;52.068;5.198;2022-11-21T02:27:30;3.50;99.90
16881;DHT22;8557;52.068;5.198;2022-11-21T02:29:57;3.50;99.90
16881;DHT22;8557;52.068;5.198;2022-11-21T02:32:31;3.50;99.90
16881;DHT22;8557;52.068;5.198;2022-11-21T02:34:59;3.50;99.90
16881;DHT22;8557;52.068;5.198;2022-11-21T02:37:25;3.50;99.90
16881;DHT22;8557;52.068;5.198;2022-11-21T02:39:52;3.50;99.90
16881;DHT22;8557;52.068;5.198;2022-11-21T02:42:26;3.50;99.90
16881;DHT22;8557;52.068;5.198;2022-11-21T02:44:59;3.50;99.90
16881;DHT22;8557;52.068;5.198;2022-11-21T02:47:27;3.40;99.90
16881;DHT22;8557;52.068;5.198;2022-11-21T02:49:59;3.30;99.90
16881;DHT22;8557;52.068;5.198;2022-11-21T02:52:27;3.30;99.90
16881;DHT22;8557;52.068;5.198;2022-11-21T02:54:54;3.30;99.90
16881;DHT22;8557;52.068;5.198;2022-11-21T02:57:22;3.40;99.90
16881;DHT22;8557;52.068;5.198;2022-11-21T02:59:49;3.40;99.90
16881;DHT22;8557;52.068;5.198;2022-11-21T03:02:15;3.40;99.90
16881;DHT22;8557;52.068;5.198;2022-11-21T03:04:42;3.40;99.90
16881;DHT22;8557;52.068;5.198;2022-11-21T03:07:09;3.30;99.90
16881;DHT22;8557;52.068;5.198;2022-11-21T03:09:36;3.40;99.90
16881;DHT22;8557;52.068;5.198;2022-11-21T03:12:06;3.30;99.90
16881;DHT22;8557;52.068;5.198;2022-11-21T03:14:35;3.20;99.90
16881;DHT22;8557;52.068;5.198;2022-11-21T03:17:02;3.10;99.90
16881;DHT22;8557;52.068;5.198;2022-11-21T03:19:29;3.20;99.90
16881;DHT22;8557;52.068;5.198;2022-11-21T03:21:56;3.20;99.90
16881;DHT22;8557;52.068;5.198;2022-11-21T03:24:23;3.20;99.90
16881;DHT22;8557;52.068;5.198;2022-11-21T03:26:50;3.20;99.90
16881;DHT22;8557;52.068;5.198;2022-11-21T03:29:16;3.20;99.90
16881;DHT22;8557;52.068;5.198;2022-11-21T03:31:45;3.30;99.90
16881;DHT22;8557;52.068;5.198;2022-11-21T03:34:11;3.30;99.90
16881;DHT22;8557;52.068;5.198;2022-11-21T03:36:38;3.30;99.90
16881;DHT22;8557;52.068;5.198;2022-11-21T03:39:05;3.30;99.90
16881;DHT22;8557;52.068;5.198;2022-11-21T03:41:32;3.30;99.90
16881;DHT22;8557;52.068;5.198;2022-11-21T03:44:01;3.30;99.90
16881;DHT22;8557;52.068;5.198;2022-11-21T03:46:29;3.40;99.90
16881;DHT22;8557;52.068;5.198;2022-11-21T03:48:58;3.30;99.90
16881;DHT22;8557;52.068;5.198;2022-11-21T03:51:25;3.30;99.90
16881;DHT22;8557;52.068;5.198;2022-11-21T03:53:52;3.30;99.90
16881;DHT22;8557;52.068;5.198;2022-11-21T03:56:19;3.20;99.90
16881;DHT22;8557;52.068;5.198;2022-11-21T03:58:46;3.30;99.90
16881;DHT22;8557;52.068;5.198;2022-11-21T04:01:13;3.30;99.90
16881;DHT22;8557;52.068;5.198;2022-11-21T04:03:41;3.30;99.90
16881;DHT22;8557;52.068;5.198;2022-11-21T04:06:10;3.30;99.90
16881;DHT22;8557;52.068;5.198;2022-11-21T04:08:37;3.30;99.90
16881;DHT22;8557;52.068;5.198;2022-11-21T04:11:04;3.20;99.90
16881;DHT22;8557;52.068;5.198;2022-11-21T04:13:32;3.40;99.90
16881;DHT22;8557;52.068;5.198;2022-11-21T04:15:58;3.40;99.90
16881;DHT22;8557;52.068;5.198;2022-11-21T04:18:25;3.40;99.90
16881;DHT22;8557;52.068;5.198;2022-11-21T04:20:55;3.40;99.90
16881;DHT22;8557;52.068;5.198;2022-11-21T04:23:23;3.40;99.90
16881;DHT22;8557;52.068;5.198;2022-11-21T04:25:50;3.50;99.90
16881;DHT22;8557;52.068;5.198;2022-11-21T04:28:17;3.40;99.90
16881;DHT22;8557;52.068;5.198;2022-11-21T04:30:44;3.40;99.90
16881;DHT22;8557;52.068;5.198;2022-11-21T04:33:11;3.40;99.90
16881;DHT22;8557;52.068;5.198;2022-11-21T04:35:39;3.60;99.90
16881;DHT22;8557;52.068;5.198;2022-11-21T04:38:05;3.60;99.90
16881;DHT22;8557;52.068;5.198;2022-11-21T04:40:34;3.70;99.90
16881;DHT22;8557;52.068;5.198;2022-11-21T04:43:01;3.70;99.90
16881;DHT22;8557;52.068;5.198;2022-11-21T04:45:28;3.50;99.90
16881;DHT22;8557;52.068;5.198;2022-11-21T04:47:54;3.60;99.90
16881;DHT22;8557;52.068;5.198;2022-11-21T04:50:21;3.70;99.90
16881;DHT22;8557;52.068;5.198;2022-11-21T04:52:49;3.80;99.90
16881;DHT22;8557;52.068;5.198;2022-11-21T04:55:16;3.90;99.90
16881;DHT22;8557;52.068;5.198;2022-11-21T04:57:45;3.80;99.90
16881;DHT22;8557;52.068;5.198;2022-11-21T05:00:13;3.80;99.90
16881;DHT22;8557;52.068;5.198;2022-11-21T05:02:40;3.80;99.90
16881;DHT22;8557;52.068;5.198;2022-11-21T05:05:07;3.80;99.90
16881;DHT22;8557;52.068;5.198;2022-11-21T05:07:34;3.80;99.90
16881;DHT22;8557;52.068;5.198;2022-11-21T05:10:01;3.80;99.90
16881;DHT22;8557;52.068;5.198;2022-11-21T05:12:27;3.80;99.90
16881;DHT22;8557;52.068;5.198;2022-11-21T05:15:13;3.80;99.90
16881;DHT22;8557;52.068;5.198;2022-11-21T05:17:40;3.80;99.90
16881;DHT22;8557;52.068;5.198;2022-11-21T05:20:08;3.90;99.90
16881;DHT22;8557;52.068;5.198;2022-11-21T05:22:35;4.00;99.90
16881;DHT22;8557;52.068;5.198;2022-11-21T05:25:02;4.00;99.90
16881;DHT22;8557;52.068;5.198;2022-11-21T05:27:29;4.20;99.90
16881;DHT22;8557;52.068;5.198;2022-11-21T05:29:56;4.20;99.90
16881;DHT22;8557;52.068;5.198;2022-11-21T05:32:24;4.30;99.90
16881;DHT22;8557;52.068;5.198;2022-11-21T05:34:51;4.20;99.90
16881;DHT22;8557;52.068;5.198;2022-11-21T05:37:18;4.10;99.90
16881;DHT22;8557;52.068;5.198;2022-11-21T05:39:46;4.10;99.90
16881;DHT22;8557;52.068;5.198;2022-11-21T05:42:14;4.10;99.90
16881;DHT22;8557;52.068;5.198;2022-11-21T05:44:41;4.10;99.90
16881;DHT22;8557;52.068;5.198;2022-11-21T05:47:06;4.00;99.90
16881;DHT22;8557;52.068;5.198;2022-11-21T05:49:35;4.10;99.90
16881;DHT22;8557;52.068;5.198;2022-11-21T05:52:02;4.20;99.90
16881;DHT22;8557;52.068;5.198;2022-11-21T05:54:29;4.20;99.90
16881;DHT22;8557;52.068;5.198;2022-11-21T05:56:55;4.20;99.90
16881;DHT22;8557;52.068;5.198;2022-11-21T05:59:22;4.20;99.90
16881;DHT22;8557;52.068;5.198;2022-11-21T06:01:49;4.20;99.90
16881;DHT22;8557;52.068;5.198;2022-11-21T06:04:35;4.30;99.90
16881;DHT22;8557;52.068;5.198;2022-11-21T06:07:02;4.40;99.90
16881;DHT22;8557;52.068;5.198;2022-11-21T06:09:30;4.30;99.90
16881;DHT22;8557;52.068;5.198;2022-11-21T06:11:57;4.30;99.90
16881;DHT22;8557;52.068;5.198;2022-11-21T06:14:24;4.40;99.90
16881;DHT22;8557;52.068;5.198;2022-11-21T06:16:51;4.40;99.90
16881;DHT22;8557;52.068;5.198;2022-11-21T06:19:18;4.40;99.90
16881;DHT22;8557;52.068;5.198;2022-11-21T06:21:46;4.30;99.90
16881;DHT22;8557;52.068;5.198;2022-11-21T06:24:13;4.30;99.90
16881;DHT22;8557;52.068;5.198;2022-11-21T06:26:40;4.30;99.90
16881;DHT22;8557;52.068;5.198;2022-11-21T06:29:10;4.30;99.90
16881;DHT22;8557;52.068;5.198;2022-11-21T06:31:37;4.40;99.90
16881;DHT22;8557;52.068;5.198;2022-11-21T06:34:04;4.30;99.90
16881;DHT22;8557;52.068;5.198;2022-11-21T06:36:31;4.30;99.90
16881;DHT22;8557;52.068;5.198;2022-11-21T06:38:59;4.30;99.90
16881;DHT22;8557;52.068;5.198;2022-11-21T06:41:26;4.40;99.90
16881;DHT22;8557;52.068;5.198;2022-11-21T06:43:58;4.30;99.90
16881;DHT22;8557;52.068;5.198;2022-11-21T06:46:26;4.30;99.90
16881;DHT22;8557;52.068;5.198;2022-11-21T06:48:53;4.30;99.90
16881;DHT22;8557;52.068;5.198;2022-11-21T06:51:21;4.30;99.90
16881;DHT22;8557;52.068;5.198;2022-11-21T06:53:52;4.30;99.90
16881;DHT22;8557;52.068;5.198;2022-11-21T06:56:21;4.30;99.90
16881;DHT22;8557;52.068;5.198;2022-11-21T06:58:49;4.40;99.90
16881;DHT22;8557;52.068;5.198;2022-11-21T07:01:15;4.40;99.90
16881;DHT22;8557;52.068;5.198;2022-11-21T07:03:42;4.50;99.90
16881;DHT22;8557;52.068;5.198;2022-11-21T07:06:09;4.50;99.90
16881;DHT22;8557;52.068;5.198;2022-11-21T07:08:36;4.50;99.90
16881;DHT22;8557;52.068;5.198;2022-11-21T07:11:06;4.50;99.90
16881;DHT22;8557;52.068;5.198;2022-11-21T07:13:35;4.50;99.90
16881;DHT22;8557;52.068;5.198;2022-11-21T07:16:03;4.60;99.90
16881;DHT22;8557;52.068;5.198;2022-11-21T07:18:30;4.60;99.90
16881;DHT22;8557;52.068;5.198;2022-11-21T07:20:57;4.70;99.90
16881;DHT22;8557;52.068;5.198;2022-11-21T07:23:24;4.90;99.90
16881;DHT22;8557;52.068;5.198;2022-11-21T07:25:51;5.00;99.90
16881;DHT22;8557;52.068;5.198;2022-11-21T07:28:18;4.90;99.90
16881;DHT22;8557;52.068;5.198;2022-11-21T07:30:46;4.80;99.90
16881;DHT22;8557;52.068;5.198;2022-11-21T07:33:13;5.00;99.90
16881;DHT22;8557;52.068;5.198;2022-11-21T07:35:40;5.00;99.90
16881;DHT22;8557;52.068;5.198;2022-11-21T07:38:08;4.80;99.90
16881;DHT22;8557;52.068;5.198;2022-11-21T07:40:35;4.80;99.90
16881;DHT22;8557;52.068;5.198;2022-11-21T07:43:02;4.80;99.90
16881;DHT22;8557;52.068;5.198;2022-11-21T07:45:30;4.80;99.90
16881;DHT22;8557;52.068;5.198;2022-11-21T07:47:59;4.80;99.90
16881;DHT22;8557;52.068;5.198;2022-11-21T07:50:26;4.90;99.90
16881;DHT22;8557;52.068;5.198;2022-11-21T07:52:56;5.00;99.90
16881;DHT22;8557;52.068;5.198;2022-11-21T07:55:23;5.00;99.90
16881;DHT22;8557;52.068;5.198;2022-11-21T07:57:57;4.90;99.90
16881;DHT22;8557;52.068;5.198;2022-11-21T08:00:24;5.00;99.90
16881;DHT22;8557;52.068;5.198;2022-11-21T08:02:51;5.00;99.90
16881;DHT22;8557;52.068;5.198;2022-11-21T08:05:19;5.10;99.90
16881;DHT22;8557;52.068;5.198;2022-11-21T08:07:46;5.10;99.90
16881;DHT22;8557;52.068;5.198;2022-11-21T08:10:13;5.20;99.90
16881;DHT22;8557;52.068;5.198;2022-11-21T08:12:40;5.10;99.90
16881;DHT22;8557;52.068;5.198;2022-11-21T08:15:08;5.10;99.90
16881;DHT22;8557;52.068;5.198;2022-11-21T08:17:35;5.20;99.90
16881;DHT22;8557;52.068;5.198;2022-11-21T08:20:03;5.10;99.90
16881;DHT22;8557;52.068;5.198;2022-11-21T08:22:31;5.30;99.90
16881;DHT22;8557;52.068;5.198;2022-11-21T08:25:03;5.30;99.90
16881;DHT22;8557;52.068;5.198;2022-11-21T08:27:30;5.30;99.90
16881;DHT22;8557;52.068;5.198;2022-11-21T08:29:57;5.20;99.90
16881;DHT22;8557;52.068;5.198;2022-11-21T08:32:24;5.30;99.90
16881;DHT22;8557;52.068;5.198;2022-11-21T08:34:50;5.40;99.90
16881;DHT22;8557;52.068;5.198;2022-11-21T08:37:17;5.40;99.90
16881;DHT22;8557;52.068;5.198;2022-11-21T08:39:45;5.40;99.90
16881;DHT22;8557;52.068;5.198;2022-11-21T08:42:12;5.50;99.90
16881;DHT22;8557;52.068;5.198;2022-11-21T08:44:39;5.50;99.90
16881;DHT22;8557;52.068;5.198;2022-11-21T08:47:06;5.60;99.90
16881;DHT22;8557;52.068;5.198;2022-11-21T08:49:32;5.50;99.90
16881;DHT22;8557;52.068;5.198;2022-11-21T08:52:00;5.60;99.90
16881;DHT22;8557;52.068;5.198;2022-11-21T08:54:27;5.60;99.90
16881;DHT22;8557;52.068;5.198;2022-11-21T08:56:55;5.70;99.90
16881;DHT22;8557;52.068;5.198;2022-11-21T08:59:22;5.70;99.90
16881;DHT22;8557;52.068;5.198;2022-11-21T09:01:48;5.70;99.90
16881;DHT22;8557;52.068;5.198;2022-11-21T09:04:17;5.60;99.90
16881;DHT22;8557;52.068;5.198;2022-11-21T09:06:43;5.70;99.90
16881;DHT22;8557;52.068;5.198;2022-11-21T09:09:10;5.80;99.90
16881;DHT22;8557;52.068;5.198;2022-11-21T09:11:37;5.90;99.90
16881;DHT22;8557;52.068;5.198;2022-11-21T09:14:05;5.90;99.90
16881;DHT22;8557;52.068;5.198;2022-11-21T09:16:49;6.00;99.90
16881;DHT22;8557;52.068;5.198;2022-11-21T09:19:33;6.10;99.90
16881;DHT22;8557;52.068;5.198;2022-11-21T09:22:00;6.10;99.90
16881;DHT22;8557;52.068;5.198;2022-11-21T09:24:27;6.10;99.90
16881;DHT22;8557;52.068;5.198;2022-11-21T09:26:54;6.20;99.90
16881;DHT22;8557;52.068;5.198;2022-11-21T09:29:22;6.30;99.90
16881;DHT22;8557;52.068;5.198;2022-11-21T09:31:48;6.40;99.90
16881;DHT22;8557;52.068;5.198;2022-11-21T09:34:15;6.50;99.90
16881;DHT22;8557;52.068;5.198;2022-11-21T09:36:43;6.50;99.90
16881;DHT22;8557;52.068;5.198;2022-11-21T09:39:09;6.50;99.90
16881;DHT22;8557;52.068;5.198;2022-11-21T09:41:39;6.60;99.90
16881;DHT22;8557;52.068;5.198;2022-11-21T09:44:32;6.60;99.90
16881;DHT22;8557;52.068;5.198;2022-11-21T09:47:14;6.70;99.90
16881;DHT22;8557;52.068;5.198;2022-11-21T09:49:46;6.80;99.90
16881;DHT22;8557;52.068;5.198;2022-11-21T09:52:15;6.80;99.90
16881;DHT22;8557;52.068;5.198;2022-11-21T09:54:48;6.90;99.90
16881;DHT22;8557;52.068;5.198;2022-11-21T09:57:20;6.80;99.90
16881;DHT22;8557;52.068;5.198;2022-11-21T09:59:49;6.90;99.90
16881;DHT22;8557;52.068;5.198;2022-11-21T10:02:18;6.90;99.90
16881;DHT22;8557;52.068;5.198;2022-11-21T10:04:46;7.00;99.90
16881;DHT22;8557;52.068;5.198;2022-11-21T10:07:19;7.10;99.90
16881;DHT22;8557;52.068;5.198;2022-11-21T10:10:10;7.20;99.90
16881;DHT22;8557;52.068;5.198;2022-11-21T10:12:52;7.30;99.90
16881;DHT22;8557;52.068;5.198;2022-11-21T10:15:30;7.30;99.90
16881;DHT22;8557;52.068;5.198;2022-11-21T10:18:21;7.30;99.90
16881;DHT22;8557;52.068;5.198;2022-11-21T10:20:57;7.40;99.90
16881;DHT22;8557;52.068;5.198;2022-11-21T10:23:42;7.50;99.90
16881;DHT22;8557;52.068;5.198;2022-11-21T10:26:20;7.50;99.90
16881;DHT22;8557;52.068;5.198;2022-11-21T10:28:51;7.70;99.90
16881;DHT22;8557;52.068;5.198;2022-11-21T10:31:22;7.80;99.90
16881;DHT22;8557;52.068;5.198;2022-11-21T10:33:51;7.80;99.90
16881;DHT22;8557;52.068;5.198;2022-11-21T10:36:24;7.70;99.90
16881;DHT22;8557;52.068;5.198;2022-11-21T10:38:57;7.70;99.90
16881;DHT22;8557;52.068;5.198;2022-11-21T10:41:39;7.70;99.90
16881;DHT22;8557;52.068;5.198;2022-11-21T10:44:13;7.70;99.90
16881;DHT22;8557;52.068;5.198;2022-11-21T10:47:10;7.90;99.90
16881;DHT22;8557;52.068;5.198;2022-11-21T10:49:38;7.80;99.90
16881;DHT22;8557;52.068;5.198;2022-11-21T10:52:08;7.90;99.90
16881;DHT22;8557;52.068;5.198;2022-11-21T10:55:02;8.10;99.90
16881;DHT22;8557;52.068;5.198;2022-11-21T10:57:32;8.20;99.90
16881;DHT22;8557;52.068;5.198;2022-11-21T11:00:15;8.30;99.90
16881;DHT22;8557;52.068;5.198;2022-11-21T11:02:59;8.60;99.90
16881;DHT22;8557;52.068;5.198;2022-11-21T11:05:30;8.80;99.90
16881;DHT22;8557;52.068;5.198;2022-11-21T11:08:02;9.10;99.90
16881;DHT22;8557;52.068;5.198;2022-11-21T11:10:30;9.40;99.90
16881;DHT22;8557;52.068;5.198;2022-11-21T11:12:58;9.50;99.90
16881;DHT22;8557;52.068;5.198;2022-11-21T11:15:53;9.60;99.90
16881;DHT22;8557;52.068;5.198;2022-11-21T11:18:22;9.60;99.90
16881;DHT22;8557;52.068;5.198;2022-11-21T11:20:50;9.70;99.90
16881;DHT22;8557;52.068;5.198;2022-11-21T11:23:23;9.80;99.90
16881;DHT22;8557;52.068;5.198;2022-11-21T11:25:51;9.90;99.90
16881;DHT22;8557;52.068;5.198;2022-11-21T11:28:19;9.90;99.90
16881;DHT22;8557;52.068;5.198;2022-11-21T11:30:49;10.00;99.90
16881;DHT22;8557;52.068;5.198;2022-11-21T11:33:33;9.90;99.90
16881;DHT22;8557;52.068;5.198;2022-11-21T11:36:13;10.00;99.90
16881;DHT22;8557;52.068;5.198;2022-11-21T11:38:47;10.10;99.90
16881;DHT22;8557;52.068;5.198;2022-11-21T11:41:34;10.40;99.90
16881;DHT22;8557;52.068;5.198;2022-11-21T11:44:32;10.60;99.90
16881;DHT22;8557;52.068;5.198;2022-11-21T11:47:22;10.90;99.90
16881;DHT22;8557;52.068;5.198;2022-11-21T11:49:59;10.80;99.90
16881;DHT22;8557;52.068;5.198;2022-11-21T11:52:47;10.90;99.90
16881;DHT22;8557;52.068;5.198;2022-11-21T11:55:19;11.00;99.90
16881;DHT22;8557;52.068;5.198;2022-11-21T11:57:49;11.10;99.90
16881;DHT22;8557;52.068;5.198;2022-11-21T12:00:26;11.20;99.90
16881;DHT22;8557;52.068;5.198;2022-11-21T12:02:57;11.20;99.90
16881;DHT22;8557;52.068;5.198;2022-11-21T12:05:29;11.30;99.90
16881;DHT22;8557;52.068;5.198;2022-11-21T12:08:06;11.30;99.90
16881;DHT22;8557;52.068;5.198;2022-11-21T12:10:40;11.40;99.90
16881;DHT22;8557;52.068;5.198;2022-11-21T12:13:23;11.40;99.90
16881;DHT22;8557;52.068;5.198;2022-11-21T12:15:54;11.40;99.90
16881;DHT22;8557;52.068;5.198;2022-11-21T12:18:28;11.40;99.90
16881;DHT22;8557;52.068;5.198;2022-11-21T12:21:02;11.60;99.90
16881;DHT22;8557;52.068;5.198;2022-11-21T12:23:32;11.50;99.90
16881;DHT22;8557;52.068;5.198;2022-11-21T12:26:16;11.40;99.90
16881;DHT22;8557;52.068;5.198;2022-11-21T12:28:50;11.50;99.90
16881;DHT22;8557;52.068;5.198;2022-11-21T12:31:24;11.40;99.90
16881;DHT22;8557;52.068;5.198;2022-11-21T12:34:08;11.20;99.90
16881;DHT22;8557;52.068;5.198;2022-11-21T12:36:42;11.20;99.90
16881;DHT22;8557;52.068;5.198;2022-11-21T12:39:42;11.10;99.90
16881;DHT22;8557;52.068;5.198;2022-11-21T12:42:18;11.00;99.90
16881;DHT22;8557;52.068;5.198;2022-11-21T12:45:23;11.00;99.90
16881;DHT22;8557;52.068;5.198;2022-11-21T12:54:30;10.80;99.90
16881;DHT22;8557;52.068;5.198;2022-11-21T12:57:07;10.70;99.90
16881;DHT22;8557;52.068;5.198;2022-11-21T12:59:42;10.70;99.90
16881;DHT22;8557;52.068;5.198;2022-11-21T13:02:20;10.60;99.90
16881;DHT22;8557;52.068;5.198;2022-11-21T13:04:49;10.70;99.90
16881;DHT22;8557;52.068;5.198;2022-11-21T13:07:17;10.60;99.90
16881;DHT22;8557;52.068;5.198;2022-11-21T13:09:48;10.60;99.90
16881;DHT22;8557;52.068;5.198;2022-11-21T13:12:22;10.60;99.90
16881;DHT22;8557;52.068;5.198;2022-11-21T13:14:57;10.60;99.90
16881;DHT22;8557;52.068;5.198;2022-11-21T13:17:39;10.60;99.90
16881;DHT22;8557;52.068;5.198;2022-11-21T13:20:17;10.60;99.90
16881;DHT22;8557;52.068;5.198;2022-11-21T13:22:54;10.60;99.90
16881;DHT22;8557;52.068;5.198;2022-11-21T13:25:41;10.70;99.90
16881;DHT22;8557;52.068;5.198;2022-11-21T13:28:29;10.60;99.90
16881;DHT22;8557;52.068;5.198;2022-11-21T13:30:58;10.60;99.90
16881;DHT22;8557;52.068;5.198;2022-11-21T13:33:54;10.50;99.90
16881;DHT22;8557;52.068;5.198;2022-11-21T13:36:40;10.40;99.90
16881;DHT22;8557;52.068;5.198;2022-11-21T13:39:32;10.30;99.90
16881;DHT22;8557;52.068;5.198;2022-11-21T13:42:11;10.20;99.90
16881;DHT22;8557;52.068;5.198;2022-11-21T13:44:56;10.00;99.90
16881;DHT22;8557;52.068;5.198;2022-11-21T13:47:56;9.90;99.90
16881;DHT22;8557;52.068;5.198;2022-11-21T13:53:33;9.80;99.90
16881;DHT22;8557;52.068;5.198;2022-11-21T13:56:06;9.80;99.90
16881;DHT22;8557;52.068;5.198;2022-11-21T13:58:48;9.60;99.90
16881;DHT22;8557;52.068;5.198;2022-11-21T14:04:42;9.50;99.90
16881;DHT22;8557;52.068;5.198;2022-11-21T14:07:25;9.40;99.90
16881;DHT22;8557;52.068;5.198;2022-11-21T14:09:54;9.40;99.90
16881;DHT22;8557;52.068;5.198;2022-11-21T14:12:24;9.30;99.90
16881;DHT22;8557;52.068;5.198;2022-11-21T14:15:09;9.30;99.90
16881;DHT22;8557;52.068;5.198;2022-11-21T14:17:43;9.20;99.90
16881;DHT22;8557;52.068;5.198;2022-11-21T14:20:17;9.20;99.90
16881;DHT22;8557;52.068;5.198;2022-11-21T14:22:52;9.10;99.90
16881;DHT22;8557;52.068;5.198;2022-11-21T14:25:22;9.10;99.90
16881;DHT22;8557;52.068;5.198;2022-11-21T14:27:51;9.10;99.90
16881;DHT22;8557;52.068;5.198;2022-11-21T14:30:32;9.20;99.90
16881;DHT22;8557;52.068;5.198;2022-11-21T14:33:26;9.10;99.90
16881;DHT22;8557;52.068;5.198;2022-11-21T14:35:56;9.10;99.90
16881;DHT22;8557;52.068;5.198;2022-11-21T14:38:24;9.10;99.90
16881;DHT22;8557;52.068;5.198;2022-11-21T14:43:40;9.10;99.90
16881;DHT22;8557;52.068;5.198;2022-11-21T14:46:13;9.20;99.90
16881;DHT22;8557;52.068;5.198;2022-11-21T14:48:40;9.10;99.90
16881;DHT22;8557;52.068;5.198;2022-11-21T14:51:08;9.10;99.90
16881;DHT22;8557;52.068;5.198;2022-11-21T14:53:39;9.10;99.90
16881;DHT22;8557;52.068;5.198;2022-11-21T14:56:09;9.10;99.90
16881;DHT22;8557;52.068;5.198;2022-11-21T14:58:36;9.00;99.90
16881;DHT22;8557;52.068;5.198;2022-11-21T15:01:04;9.00;99.90
16881;DHT22;8557;52.068;5.198;2022-11-21T15:03:33;8.90;99.90
16881;DHT22;8557;52.068;5.198;2022-11-21T15:06:02;8.90;99.90
16881;DHT22;8557;52.068;5.198;2022-11-21T15:08:29;8.90;99.90
16881;DHT22;8557;52.068;5.198;2022-11-21T15:10:57;8.90;99.90
16881;DHT22;8557;52.068;5.198;2022-11-21T15:13:27;8.90;99.90
16881;DHT22;8557;52.068;5.198;2022-11-21T15:15:57;8.90;99.90
16881;DHT22;8557;52.068;5.198;2022-11-21T15:18:26;8.90;99.90
16881;DHT22;8557;52.068;5.198;2022-11-21T15:20:57;8.90;99.90
16881;DHT22;8557;52.068;5.198;2022-11-21T15:23:27;8.80;99.90
16881;DHT22;8557;52.068;5.198;2022-11-21T15:25:54;8.80;99.90
16881;DHT22;8557;52.068;5.198;2022-11-21T15:28:22;8.70;99.90
16881;DHT22;8557;52.068;5.198;2022-11-21T15:31:13;8.70;99.90
16881;DHT22;8557;52.068;5.198;2022-11-21T15:33:54;8.70;99.90
16881;DHT22;8557;52.068;5.198;2022-11-21T15:36:23;8.70;99.90
16881;DHT22;8557;52.068;5.198;2022-11-21T15:38:52;8.60;99.90
16881;DHT22;8557;52.068;5.198;2022-11-21T15:41:26;8.60;99.90
16881;DHT22;8557;52.068;5.198;2022-11-21T15:43:54;8.60;99.90
16881;DHT22;8557;52.068;5.198;2022-11-21T15:46:24;8.60;99.90
16881;DHT22;8557;52.068;5.198;2022-11-21T15:48:52;8.50;99.90
16881;DHT22;8557;52.068;5.198;2022-11-21T15:51:21;8.50;99.90
16881;DHT22;8557;52.068;5.198;2022-11-21T15:53:49;8.50;99.90
16881;DHT22;8557;52.068;5.198;2022-11-21T15:56:17;8.40;99.90
16881;DHT22;8557;52.068;5.198;2022-11-21T15:58:45;8.40;99.90
16881;DHT22;8557;52.068;5.198;2022-11-21T16:01:13;8.30;99.90
16881;DHT22;8557;52.068;5.198;2022-11-21T16:03:41;8.30;99.90
16881;DHT22;8557;52.068;5.198;2022-11-21T16:06:08;8.30;99.90
16881;DHT22;8557;52.068;5.198;2022-11-21T16:08:35;8.20;99.90
16881;DHT22;8557;52.068;5.198;2022-11-21T16:11:03;8.20;99.90
16881;DHT22;8557;52.068;5.198;2022-11-21T16:13:30;8.30;99.90
16881;DHT22;8557;52.068;5.198;2022-11-21T16:16:00;8.30;99.90
16881;DHT22;8557;52.068;5.198;2022-11-21T16:18:28;8.20;99.90
16881;DHT22;8557;52.068;5.198;2022-11-21T16:21:03;8.20;99.90
16881;DHT22;8557;52.068;5.198;2022-11-21T16:23:30;8.30;99.90
16881;DHT22;8557;52.068;5.198;2022-11-21T16:25:57;8.30;99.90
16881;DHT22;8557;52.068;5.198;2022-11-21T16:28:25;8.30;99.90
16881;DHT22;8557;52.068;5.198;2022-11-21T16:30:52;8.20;99.90
16881;DHT22;8557;52.068;5.198;2022-11-21T16:33:19;8.30;99.90
16881;DHT22;8557;52.068;5.198;2022-11-21T16:35:45;8.30;99.90
16881;DHT22;8557;52.068;5.198;2022-11-21T16:38:14;8.30;99.90